sensor_id;sensor_type;location;lat;lon;timestamp;P1;durP1;ratioP1;P2;durP2;ratioP2
10509;SDS011;5303;53.266;10.410;2023-04-25T00:01:54;8.03;;;5.87;;
10509;SDS011;5303;53.266;10.410;2023-04-25T00:04:21;10.60;;;6.77;;
10509;SDS011;5303;53.266;10.410;2023-04-25T00:06:46;7.40;;;6.20;;
10509;SDS011;5303;53.266;10.410;2023-04-25T00:09:12;8.37;;;6.30;;
10509;SDS011;5303;53.266;10.410;2023-04-25T00:11:37;10.33;;;6.23;;
10509;SDS011;5303;53.266;10.410;2023-04-25T00:14:03;9.33;;;6.73;;
10509;SDS011;5303;53.266;10.410;2023-04-25T00:16:29;8.63;;;6.20;;
10509;SDS011;5303;53.266;10.410;2023-04-25T00:18:58;6.67;;;5.97;;
10509;SDS011;5303;53.266;10.410;2023-04-25T00:21:24;9.57;;;6.67;;
10509;SDS011;5303;53.266;10.410;2023-04-25T00:23:50;8.83;;;6.23;;
10509;SDS011;5303;53.266;10.410;2023-04-25T00:26:17;10.20;;;6.87;;
10509;SDS011;5303;53.266;10.410;2023-04-25T00:28:42;8.23;;;6.40;;
10509;SDS011;5303;53.266;10.410;2023-04-25T00:31:07;8.23;;;6.40;;
10509;SDS011;5303;53.266;10.410;2023-04-25T00:33:33;8.80;;;6.50;;
10509;SDS011;5303;53.266;10.410;2023-04-25T00:35:58;12.13;;;7.03;;
10509;SDS011;5303;53.266;10.410;2023-04-25T00:38:23;11.07;;;7.10;;
10509;SDS011;5303;53.266;10.410;2023-04-25T00:40:49;8.93;;;6.47;;
10509;SDS011;5303;53.266;10.410;2023-04-25T00:43:14;8.03;;;6.13;;
10509;SDS011;5303;53.266;10.410;2023-04-25T00:45:40;9.10;;;7.00;;
10509;SDS011;5303;53.266;10.410;2023-04-25T00:48:05;9.40;;;6.67;;
10509;SDS011;5303;53.266;10.410;2023-04-25T00:50:33;10.47;;;6.77;;
10509;SDS011;5303;53.266;10.410;2023-04-25T00:52:58;9.67;;;7.03;;
10509;SDS011;5303;53.266;10.410;2023-04-25T00:55:24;8.50;;;6.80;;
10509;SDS011;5303;53.266;10.410;2023-04-25T00:57:49;7.90;;;6.47;;
10509;SDS011;5303;53.266;10.410;2023-04-25T01:00:15;11.60;;;7.13;;
10509;SDS011;5303;53.266;10.410;2023-04-25T01:02:41;12.07;;;7.17;;
10509;SDS011;5303;53.266;10.410;2023-04-25T01:05:09;8.70;;;7.80;;
10509;SDS011;5303;53.266;10.410;2023-04-25T01:07:35;12.97;;;7.40;;
10509;SDS011;5303;53.266;10.410;2023-04-25T01:10:00;10.50;;;8.07;;
10509;SDS011;5303;53.266;10.410;2023-04-25T01:12:27;11.30;;;7.77;;
10509;SDS011;5303;53.266;10.410;2023-04-25T01:14:52;8.30;;;5.60;;
10509;SDS011;5303;53.266;10.410;2023-04-25T01:17:18;6.73;;;4.77;;
10509;SDS011;5303;53.266;10.410;2023-04-25T01:19:44;9.57;;;5.90;;
10509;SDS011;5303;53.266;10.410;2023-04-25T01:22:12;5.80;;;4.43;;
10509;SDS011;5303;53.266;10.410;2023-04-25T01:24:39;6.07;;;4.60;;
10509;SDS011;5303;53.266;10.410;2023-04-25T01:27:04;5.83;;;4.80;;
10509;SDS011;5303;53.266;10.410;2023-04-25T01:29:33;5.47;;;4.87;;
10509;SDS011;5303;53.266;10.410;2023-04-25T01:31:59;9.77;;;5.40;;
10509;SDS011;5303;53.266;10.410;2023-04-25T01:34:25;9.90;;;5.60;;
10509;SDS011;5303;53.266;10.410;2023-04-25T01:36:52;9.10;;;4.50;;
10509;SDS011;5303;53.266;10.410;2023-04-25T01:39:18;9.93;;;5.07;;
10509;SDS011;5303;53.266;10.410;2023-04-25T01:41:44;8.20;;;4.57;;
10509;SDS011;5303;53.266;10.410;2023-04-25T01:44:14;13.63;;;5.43;;
10509;SDS011;5303;53.266;10.410;2023-04-25T01:46:40;12.13;;;5.63;;
10509;SDS011;5303;53.266;10.410;2023-04-25T01:49:05;10.70;;;4.10;;
10509;SDS011;5303;53.266;10.410;2023-04-25T01:51:31;16.30;;;5.17;;
10509;SDS011;5303;53.266;10.410;2023-04-25T01:53:57;15.80;;;4.80;;
10509;SDS011;5303;53.266;10.410;2023-04-25T01:56:23;19.27;;;4.70;;
10509;SDS011;5303;53.266;10.410;2023-04-25T01:58:48;15.30;;;5.30;;
10509;SDS011;5303;53.266;10.410;2023-04-25T02:01:13;16.03;;;5.17;;
10509;SDS011;5303;53.266;10.410;2023-04-25T02:03:39;15.93;;;5.20;;
10509;SDS011;5303;53.266;10.410;2023-04-25T02:06:04;14.10;;;4.90;;
10509;SDS011;5303;53.266;10.410;2023-04-25T02:08:30;19.93;;;4.60;;
10509;SDS011;5303;53.266;10.410;2023-04-25T02:10:56;16.13;;;4.70;;
10509;SDS011;5303;53.266;10.410;2023-04-25T02:13:21;18.97;;;5.07;;
10509;SDS011;5303;53.266;10.410;2023-04-25T02:15:47;13.67;;;4.93;;
10509;SDS011;5303;53.266;10.410;2023-04-25T02:18:12;23.43;;;5.83;;
10509;SDS011;5303;53.266;10.410;2023-04-25T02:20:38;15.90;;;4.93;;
10509;SDS011;5303;53.266;10.410;2023-04-25T02:23:03;16.70;;;5.10;;
10509;SDS011;5303;53.266;10.410;2023-04-25T02:25:28;12.17;;;4.33;;
10509;SDS011;5303;53.266;10.410;2023-04-25T02:27:54;21.77;;;5.60;;
10509;SDS011;5303;53.266;10.410;2023-04-25T02:30:19;19.73;;;5.13;;
10509;SDS011;5303;53.266;10.410;2023-04-25T02:32:45;24.83;;;6.20;;
10509;SDS011;5303;53.266;10.410;2023-04-25T02:35:10;21.40;;;5.80;;
10509;SDS011;5303;53.266;10.410;2023-04-25T02:37:36;20.47;;;5.43;;
10509;SDS011;5303;53.266;10.410;2023-04-25T02:40:03;20.80;;;5.20;;
10509;SDS011;5303;53.266;10.410;2023-04-25T02:42:29;22.60;;;5.50;;
10509;SDS011;5303;53.266;10.410;2023-04-25T02:44:55;23.87;;;5.17;;
10509;SDS011;5303;53.266;10.410;2023-04-25T02:47:20;11.93;;;4.67;;
10509;SDS011;5303;53.266;10.410;2023-04-25T02:49:45;17.27;;;5.20;;
10509;SDS011;5303;53.266;10.410;2023-04-25T02:52:11;17.10;;;4.90;;
10509;SDS011;5303;53.266;10.410;2023-04-25T02:54:37;21.73;;;5.23;;
10509;SDS011;5303;53.266;10.410;2023-04-25T02:57:03;24.60;;;6.13;;
10509;SDS011;5303;53.266;10.410;2023-04-25T02:59:28;18.13;;;5.17;;
10509;SDS011;5303;53.266;10.410;2023-04-25T03:01:53;24.70;;;6.20;;
10509;SDS011;5303;53.266;10.410;2023-04-25T03:04:19;16.17;;;5.27;;
10509;SDS011;5303;53.266;10.410;2023-04-25T03:06:44;25.43;;;6.33;;
10509;SDS011;5303;53.266;10.410;2023-04-25T03:09:09;15.67;;;6.10;;
10509;SDS011;5303;53.266;10.410;2023-04-25T03:11:35;17.37;;;6.40;;
10509;SDS011;5303;53.266;10.410;2023-04-25T03:14:00;20.97;;;5.90;;
10509;SDS011;5303;53.266;10.410;2023-04-25T03:16:25;21.73;;;5.10;;
10509;SDS011;5303;53.266;10.410;2023-04-25T03:18:51;21.40;;;6.23;;
10509;SDS011;5303;53.266;10.410;2023-04-25T03:21:16;16.90;;;5.20;;
10509;SDS011;5303;53.266;10.410;2023-04-25T03:23:42;16.57;;;5.50;;
10509;SDS011;5303;53.266;10.410;2023-04-25T03:26:07;21.43;;;5.13;;
10509;SDS011;5303;53.266;10.410;2023-04-25T03:28:33;18.10;;;5.07;;
10509;SDS011;5303;53.266;10.410;2023-04-25T03:30:58;19.17;;;4.87;;
10509;SDS011;5303;53.266;10.410;2023-04-25T03:33:23;17.07;;;5.30;;
10509;SDS011;5303;53.266;10.410;2023-04-25T03:35:49;25.30;;;5.20;;
10509;SDS011;5303;53.266;10.410;2023-04-25T03:38:14;20.07;;;4.70;;
10509;SDS011;5303;53.266;10.410;2023-04-25T03:40:40;18.03;;;5.00;;
10509;SDS011;5303;53.266;10.410;2023-04-25T03:43:05;22.30;;;5.43;;
10509;SDS011;5303;53.266;10.410;2023-04-25T03:45:31;18.87;;;5.23;;
10509;SDS011;5303;53.266;10.410;2023-04-25T03:47:56;19.33;;;5.40;;
10509;SDS011;5303;53.266;10.410;2023-04-25T03:50:21;19.27;;;4.67;;
10509;SDS011;5303;53.266;10.410;2023-04-25T03:52:47;17.70;;;5.30;;
10509;SDS011;5303;53.266;10.410;2023-04-25T03:55:12;13.57;;;4.37;;
10509;SDS011;5303;53.266;10.410;2023-04-25T03:57:37;23.77;;;5.47;;
10509;SDS011;5303;53.266;10.410;2023-04-25T04:00:03;20.87;;;5.27;;
10509;SDS011;5303;53.266;10.410;2023-04-25T04:02:29;19.57;;;5.07;;
10509;SDS011;5303;53.266;10.410;2023-04-25T04:04:54;22.43;;;4.83;;
10509;SDS011;5303;53.266;10.410;2023-04-25T04:07:21;18.47;;;5.60;;
10509;SDS011;5303;53.266;10.410;2023-04-25T04:09:46;19.10;;;5.37;;
10509;SDS011;5303;53.266;10.410;2023-04-25T04:12:12;15.43;;;4.50;;
10509;SDS011;5303;53.266;10.410;2023-04-25T04:14:37;20.63;;;4.60;;
10509;SDS011;5303;53.266;10.410;2023-04-25T04:17:02;16.77;;;4.53;;
10509;SDS011;5303;53.266;10.410;2023-04-25T04:19:28;17.10;;;4.70;;
10509;SDS011;5303;53.266;10.410;2023-04-25T04:21:53;20.20;;;4.90;;
10509;SDS011;5303;53.266;10.410;2023-04-25T04:24:18;25.60;;;5.63;;
10509;SDS011;5303;53.266;10.410;2023-04-25T04:26:43;21.97;;;5.23;;
10509;SDS011;5303;53.266;10.410;2023-04-25T04:29:10;17.43;;;5.10;;
10509;SDS011;5303;53.266;10.410;2023-04-25T04:31:35;21.90;;;5.80;;
10509;SDS011;5303;53.266;10.410;2023-04-25T04:34:00;13.80;;;4.27;;
10509;SDS011;5303;53.266;10.410;2023-04-25T04:36:26;16.07;;;4.87;;
10509;SDS011;5303;53.266;10.410;2023-04-25T04:38:52;17.33;;;5.13;;
10509;SDS011;5303;53.266;10.410;2023-04-25T04:41:18;19.23;;;5.20;;
10509;SDS011;5303;53.266;10.410;2023-04-25T04:43:44;15.53;;;4.73;;
10509;SDS011;5303;53.266;10.410;2023-04-25T04:46:09;17.50;;;4.83;;
10509;SDS011;5303;53.266;10.410;2023-04-25T04:48:35;17.67;;;5.20;;
10509;SDS011;5303;53.266;10.410;2023-04-25T04:51:00;16.23;;;4.50;;
10509;SDS011;5303;53.266;10.410;2023-04-25T04:53:26;18.50;;;4.40;;
10509;SDS011;5303;53.266;10.410;2023-04-25T04:55:52;17.60;;;5.53;;
10509;SDS011;5303;53.266;10.410;2023-04-25T04:58:17;14.13;;;5.30;;
10509;SDS011;5303;53.266;10.410;2023-04-25T05:00:43;19.70;;;5.33;;
10509;SDS011;5303;53.266;10.410;2023-04-25T05:03:08;19.80;;;5.23;;
10509;SDS011;5303;53.266;10.410;2023-04-25T05:05:33;24.23;;;5.20;;
10509;SDS011;5303;53.266;10.410;2023-04-25T05:07:59;13.47;;;4.43;;
10509;SDS011;5303;53.266;10.410;2023-04-25T05:10:25;12.83;;;3.83;;
10509;SDS011;5303;53.266;10.410;2023-04-25T05:12:50;21.40;;;4.43;;
10509;SDS011;5303;53.266;10.410;2023-04-25T05:15:16;18.23;;;4.83;;
10509;SDS011;5303;53.266;10.410;2023-04-25T05:17:41;16.30;;;4.40;;
10509;SDS011;5303;53.266;10.410;2023-04-25T05:20:07;14.43;;;4.77;;
10509;SDS011;5303;53.266;10.410;2023-04-25T05:22:34;11.70;;;3.80;;
10509;SDS011;5303;53.266;10.410;2023-04-25T05:24:59;9.73;;;3.87;;
10509;SDS011;5303;53.266;10.410;2023-04-25T05:27:24;19.40;;;4.77;;
10509;SDS011;5303;53.266;10.410;2023-04-25T05:29:50;16.13;;;4.60;;
10509;SDS011;5303;53.266;10.410;2023-04-25T05:32:15;14.93;;;4.40;;
10509;SDS011;5303;53.266;10.410;2023-04-25T05:34:41;13.83;;;4.13;;
10509;SDS011;5303;53.266;10.410;2023-04-25T05:37:06;17.33;;;4.20;;
10509;SDS011;5303;53.266;10.410;2023-04-25T05:39:32;15.23;;;4.70;;
10509;SDS011;5303;53.266;10.410;2023-04-25T05:41:57;13.67;;;4.10;;
10509;SDS011;5303;53.266;10.410;2023-04-25T05:44:22;13.57;;;3.50;;
10509;SDS011;5303;53.266;10.410;2023-04-25T05:46:48;16.40;;;4.20;;
10509;SDS011;5303;53.266;10.410;2023-04-25T05:49:13;16.00;;;4.10;;
10509;SDS011;5303;53.266;10.410;2023-04-25T05:51:39;12.70;;;4.20;;
10509;SDS011;5303;53.266;10.410;2023-04-25T05:54:04;14.17;;;3.60;;
10509;SDS011;5303;53.266;10.410;2023-04-25T05:56:29;18.40;;;3.83;;
10509;SDS011;5303;53.266;10.410;2023-04-25T05:58:55;12.63;;;4.07;;
10509;SDS011;5303;53.266;10.410;2023-04-25T06:01:21;16.93;;;3.70;;
10509;SDS011;5303;53.266;10.410;2023-04-25T06:03:47;13.53;;;4.27;;
10509;SDS011;5303;53.266;10.410;2023-04-25T06:06:13;17.30;;;4.30;;
10509;SDS011;5303;53.266;10.410;2023-04-25T06:08:38;9.80;;;3.70;;
10509;SDS011;5303;53.266;10.410;2023-04-25T06:11:03;11.00;;;4.57;;
10509;SDS011;5303;53.266;10.410;2023-04-25T06:13:29;8.77;;;3.40;;
10509;SDS011;5303;53.266;10.410;2023-04-25T06:15:55;17.00;;;4.30;;
10509;SDS011;5303;53.266;10.410;2023-04-25T06:18:20;13.57;;;3.83;;
10509;SDS011;5303;53.266;10.410;2023-04-25T06:20:45;14.53;;;3.53;;
10509;SDS011;5303;53.266;10.410;2023-04-25T06:23:11;11.17;;;3.70;;
10509;SDS011;5303;53.266;10.410;2023-04-25T06:25:37;13.23;;;3.83;;
10509;SDS011;5303;53.266;10.410;2023-04-25T06:28:02;17.37;;;4.30;;
10509;SDS011;5303;53.266;10.410;2023-04-25T06:30:28;16.00;;;3.63;;
10509;SDS011;5303;53.266;10.410;2023-04-25T06:32:53;17.27;;;3.60;;
10509;SDS011;5303;53.266;10.410;2023-04-25T06:35:18;18.67;;;4.10;;
10509;SDS011;5303;53.266;10.410;2023-04-25T06:37:44;13.03;;;3.80;;
10509;SDS011;5303;53.266;10.410;2023-04-25T06:40:09;14.87;;;3.90;;
10509;SDS011;5303;53.266;10.410;2023-04-25T06:42:35;10.27;;;3.33;;
10509;SDS011;5303;53.266;10.410;2023-04-25T06:45:01;9.13;;;3.30;;
10509;SDS011;5303;53.266;10.410;2023-04-25T06:47:26;11.07;;;3.90;;
10509;SDS011;5303;53.266;10.410;2023-04-25T06:49:51;13.17;;;3.77;;
10509;SDS011;5303;53.266;10.410;2023-04-25T06:52:16;11.43;;;3.77;;
10509;SDS011;5303;53.266;10.410;2023-04-25T06:54:43;14.50;;;4.00;;
10509;SDS011;5303;53.266;10.410;2023-04-25T06:57:08;9.67;;;3.53;;
10509;SDS011;5303;53.266;10.410;2023-04-25T06:59:33;11.57;;;3.77;;
10509;SDS011;5303;53.266;10.410;2023-04-25T07:01:59;13.00;;;3.27;;
10509;SDS011;5303;53.266;10.410;2023-04-25T07:04:24;14.83;;;4.20;;
10509;SDS011;5303;53.266;10.410;2023-04-25T07:06:49;11.07;;;3.47;;
10509;SDS011;5303;53.266;10.410;2023-04-25T07:09:15;9.63;;;3.47;;
10509;SDS011;5303;53.266;10.410;2023-04-25T07:11:40;14.07;;;3.60;;
10509;SDS011;5303;53.266;10.410;2023-04-25T07:14:05;9.03;;;4.37;;
10509;SDS011;5303;53.266;10.410;2023-04-25T07:16:31;9.03;;;3.33;;
10509;SDS011;5303;53.266;10.410;2023-04-25T07:18:56;14.57;;;3.73;;
10509;SDS011;5303;53.266;10.410;2023-04-25T07:21:21;15.47;;;3.90;;
10509;SDS011;5303;53.266;10.410;2023-04-25T07:23:46;16.40;;;3.90;;
10509;SDS011;5303;53.266;10.410;2023-04-25T07:26:12;14.20;;;3.90;;
10509;SDS011;5303;53.266;10.410;2023-04-25T07:28:37;16.47;;;3.47;;
10509;SDS011;5303;53.266;10.410;2023-04-25T07:31:02;10.90;;;3.53;;
10509;SDS011;5303;53.266;10.410;2023-04-25T07:33:28;12.60;;;3.63;;
10509;SDS011;5303;53.266;10.410;2023-04-25T07:35:54;13.43;;;3.70;;
10509;SDS011;5303;53.266;10.410;2023-04-25T07:38:20;10.40;;;3.60;;
10509;SDS011;5303;53.266;10.410;2023-04-25T07:40:48;14.00;;;4.20;;
10509;SDS011;5303;53.266;10.410;2023-04-25T07:43:14;11.97;;;3.87;;
10509;SDS011;5303;53.266;10.410;2023-04-25T07:45:41;11.70;;;3.30;;
10509;SDS011;5303;53.266;10.410;2023-04-25T07:48:07;9.27;;;3.63;;
10509;SDS011;5303;53.266;10.410;2023-04-25T07:50:32;13.57;;;3.37;;
10509;SDS011;5303;53.266;10.410;2023-04-25T07:52:58;13.17;;;3.80;;
10509;SDS011;5303;53.266;10.410;2023-04-25T07:55:23;17.93;;;4.00;;
10509;SDS011;5303;53.266;10.410;2023-04-25T07:57:48;12.13;;;3.83;;
10509;SDS011;5303;53.266;10.410;2023-04-25T08:00:14;14.83;;;3.50;;
10509;SDS011;5303;53.266;10.410;2023-04-25T08:02:40;7.57;;;3.43;;
10509;SDS011;5303;53.266;10.410;2023-04-25T08:05:05;6.20;;;2.50;;
10509;SDS011;5303;53.266;10.410;2023-04-25T08:07:33;8.30;;;3.13;;
10509;SDS011;5303;53.266;10.410;2023-04-25T08:09:58;10.10;;;3.80;;
10509;SDS011;5303;53.266;10.410;2023-04-25T08:12:23;7.70;;;3.20;;
10509;SDS011;5303;53.266;10.410;2023-04-25T08:14:49;11.43;;;2.90;;
10509;SDS011;5303;53.266;10.410;2023-04-25T08:17:14;9.03;;;3.03;;
10509;SDS011;5303;53.266;10.410;2023-04-25T08:19:40;11.80;;;3.03;;
10509;SDS011;5303;53.266;10.410;2023-04-25T08:22:05;10.10;;;2.67;;
10509;SDS011;5303;53.266;10.410;2023-04-25T08:24:30;8.73;;;2.60;;
10509;SDS011;5303;53.266;10.410;2023-04-25T08:26:56;5.53;;;2.50;;
10509;SDS011;5303;53.266;10.410;2023-04-25T08:29:21;10.93;;;2.93;;
10509;SDS011;5303;53.266;10.410;2023-04-25T08:31:48;9.83;;;3.03;;
10509;SDS011;5303;53.266;10.410;2023-04-25T08:34:14;7.20;;;2.80;;
10509;SDS011;5303;53.266;10.410;2023-04-25T08:36:40;9.43;;;2.90;;
10509;SDS011;5303;53.266;10.410;2023-04-25T08:39:05;7.23;;;2.40;;
10509;SDS011;5303;53.266;10.410;2023-04-25T08:41:30;8.70;;;2.73;;
10509;SDS011;5303;53.266;10.410;2023-04-25T08:43:56;8.87;;;2.67;;
10509;SDS011;5303;53.266;10.410;2023-04-25T08:46:25;6.87;;;2.83;;
10509;SDS011;5303;53.266;10.410;2023-04-25T08:48:50;7.30;;;2.93;;
10509;SDS011;5303;53.266;10.410;2023-04-25T08:51:21;6.67;;;2.40;;
10509;SDS011;5303;53.266;10.410;2023-04-25T08:53:50;9.37;;;2.70;;
10509;SDS011;5303;53.266;10.410;2023-04-25T08:56:17;6.33;;;2.13;;
10509;SDS011;5303;53.266;10.410;2023-04-25T08:58:43;5.13;;;2.33;;
10509;SDS011;5303;53.266;10.410;2023-04-25T09:01:09;7.70;;;2.97;;
10509;SDS011;5303;53.266;10.410;2023-04-25T09:03:34;7.77;;;2.20;;
10509;SDS011;5303;53.266;10.410;2023-04-25T09:06:00;9.73;;;2.60;;
10509;SDS011;5303;53.266;10.410;2023-04-25T09:08:26;9.23;;;2.70;;
10509;SDS011;5303;53.266;10.410;2023-04-25T09:10:51;8.63;;;2.60;;
10509;SDS011;5303;53.266;10.410;2023-04-25T09:13:23;8.80;;;2.87;;
10509;SDS011;5303;53.266;10.410;2023-04-25T09:15:52;9.43;;;2.50;;
10509;SDS011;5303;53.266;10.410;2023-04-25T09:18:22;8.93;;;2.73;;
10509;SDS011;5303;53.266;10.410;2023-04-25T09:20:52;10.27;;;2.60;;
10509;SDS011;5303;53.266;10.410;2023-04-25T09:23:18;5.23;;;2.10;;
10509;SDS011;5303;53.266;10.410;2023-04-25T09:25:45;7.57;;;2.40;;
10509;SDS011;5303;53.266;10.410;2023-04-25T09:28:12;7.57;;;2.70;;
10509;SDS011;5303;53.266;10.410;2023-04-25T09:30:38;8.20;;;2.33;;
10509;SDS011;5303;53.266;10.410;2023-04-25T09:33:04;7.50;;;2.27;;
10509;SDS011;5303;53.266;10.410;2023-04-25T09:35:40;7.50;;;2.40;;
10509;SDS011;5303;53.266;10.410;2023-04-25T09:38:11;10.83;;;2.40;;
10509;SDS011;5303;53.266;10.410;2023-04-25T09:40:39;7.03;;;2.03;;
10509;SDS011;5303;53.266;10.410;2023-04-25T09:43:18;6.80;;;2.30;;
10509;SDS011;5303;53.266;10.410;2023-04-25T09:45:47;5.40;;;2.20;;
10509;SDS011;5303;53.266;10.410;2023-04-25T09:48:20;8.33;;;1.90;;
10509;SDS011;5303;53.266;10.410;2023-04-25T09:53:30;9.30;;;2.20;;
10509;SDS011;5303;53.266;10.410;2023-04-25T09:55:57;6.97;;;2.13;;
10509;SDS011;5303;53.266;10.410;2023-04-25T09:58:25;3.07;;;1.40;;
10509;SDS011;5303;53.266;10.410;2023-04-25T10:00:53;6.30;;;1.50;;
10509;SDS011;5303;53.266;10.410;2023-04-25T10:03:22;3.33;;;1.40;;
10509;SDS011;5303;53.266;10.410;2023-04-25T10:05:50;8.07;;;2.03;;
10509;SDS011;5303;53.266;10.410;2023-04-25T10:08:17;5.27;;;1.80;;
10509;SDS011;5303;53.266;10.410;2023-04-25T10:10:43;4.07;;;2.00;;
10509;SDS011;5303;53.266;10.410;2023-04-25T10:13:09;3.00;;;1.63;;
10509;SDS011;5303;53.266;10.410;2023-04-25T10:15:36;4.13;;;1.70;;
10509;SDS011;5303;53.266;10.410;2023-04-25T10:18:02;3.80;;;1.37;;
10509;SDS011;5303;53.266;10.410;2023-04-25T10:20:27;3.40;;;1.53;;
10509;SDS011;5303;53.266;10.410;2023-04-25T10:22:54;5.13;;;2.00;;
10509;SDS011;5303;53.266;10.410;2023-04-25T10:25:23;4.40;;;1.90;;
10509;SDS011;5303;53.266;10.410;2023-04-25T10:27:52;6.07;;;2.00;;
10509;SDS011;5303;53.266;10.410;2023-04-25T10:30:18;5.37;;;2.10;;
10509;SDS011;5303;53.266;10.410;2023-04-25T10:32:44;6.67;;;1.80;;
10509;SDS011;5303;53.266;10.410;2023-04-25T10:35:16;5.60;;;1.70;;
10509;SDS011;5303;53.266;10.410;2023-04-25T10:40:35;8.03;;;1.87;;
10509;SDS011;5303;53.266;10.410;2023-04-25T10:46:02;5.63;;;2.00;;
10509;SDS011;5303;53.266;10.410;2023-04-25T10:48:38;6.20;;;2.10;;
10509;SDS011;5303;53.266;10.410;2023-04-25T10:51:11;5.03;;;1.90;;
10509;SDS011;5303;53.266;10.410;2023-04-25T10:53:40;6.83;;;2.03;;
10509;SDS011;5303;53.266;10.410;2023-04-25T10:56:16;4.13;;;2.00;;
10509;SDS011;5303;53.266;10.410;2023-04-25T10:58:44;5.33;;;2.00;;
10509;SDS011;5303;53.266;10.410;2023-04-25T11:01:10;4.10;;;1.80;;
10509;SDS011;5303;53.266;10.410;2023-04-25T11:03:40;9.00;;;2.00;;
10509;SDS011;5303;53.266;10.410;2023-04-25T11:06:08;5.83;;;1.73;;
10509;SDS011;5303;53.266;10.410;2023-04-25T11:08:56;6.87;;;1.93;;
10509;SDS011;5303;53.266;10.410;2023-04-25T11:11:22;9.53;;;2.37;;
10509;SDS011;5303;53.266;10.410;2023-04-25T11:13:47;7.33;;;2.17;;
10509;SDS011;5303;53.266;10.410;2023-04-25T11:16:16;5.33;;;1.77;;
10509;SDS011;5303;53.266;10.410;2023-04-25T11:18:42;8.23;;;1.90;;
10509;SDS011;5303;53.266;10.410;2023-04-25T11:21:09;6.87;;;2.10;;
10509;SDS011;5303;53.266;10.410;2023-04-25T11:23:35;5.23;;;2.00;;
10509;SDS011;5303;53.266;10.410;2023-04-25T11:26:00;3.43;;;1.93;;
10509;SDS011;5303;53.266;10.410;2023-04-25T11:28:26;5.53;;;2.00;;
10509;SDS011;5303;53.266;10.410;2023-04-25T11:30:52;5.03;;;1.80;;
10509;SDS011;5303;53.266;10.410;2023-04-25T11:33:17;7.03;;;2.00;;
10509;SDS011;5303;53.266;10.410;2023-04-25T11:35:43;7.00;;;2.17;;
10509;SDS011;5303;53.266;10.410;2023-04-25T11:38:08;5.03;;;1.47;;
10509;SDS011;5303;53.266;10.410;2023-04-25T11:40:35;4.17;;;1.70;;
10509;SDS011;5303;53.266;10.410;2023-04-25T11:43:00;4.77;;;1.77;;
10509;SDS011;5303;53.266;10.410;2023-04-25T11:45:26;6.27;;;1.73;;
10509;SDS011;5303;53.266;10.410;2023-04-25T11:47:53;5.70;;;1.80;;
10509;SDS011;5303;53.266;10.410;2023-04-25T11:50:19;6.33;;;1.67;;
10509;SDS011;5303;53.266;10.410;2023-04-25T11:52:45;4.70;;;1.80;;
10509;SDS011;5303;53.266;10.410;2023-04-25T11:55:15;5.93;;;2.00;;
10509;SDS011;5303;53.266;10.410;2023-04-25T11:57:43;7.27;;;2.23;;
10509;SDS011;5303;53.266;10.410;2023-04-25T12:00:16;3.67;;;1.50;;
10509;SDS011;5303;53.266;10.410;2023-04-25T12:02:45;5.07;;;1.70;;
10509;SDS011;5303;53.266;10.410;2023-04-25T12:05:12;4.87;;;1.70;;
10509;SDS011;5303;53.266;10.410;2023-04-25T12:07:40;4.23;;;1.63;;
10509;SDS011;5303;53.266;10.410;2023-04-25T12:12:33;3.60;;;1.83;;
10509;SDS011;5303;53.266;10.410;2023-04-25T12:15:23;2.93;;;1.80;;
10509;SDS011;5303;53.266;10.410;2023-04-25T12:17:51;7.77;;;1.60;;
10509;SDS011;5303;53.266;10.410;2023-04-25T12:20:18;3.93;;;1.60;;
10509;SDS011;5303;53.266;10.410;2023-04-25T12:22:46;5.03;;;1.70;;
10509;SDS011;5303;53.266;10.410;2023-04-25T12:25:13;5.37;;;1.87;;
10509;SDS011;5303;53.266;10.410;2023-04-25T12:27:39;4.77;;;1.70;;
10509;SDS011;5303;53.266;10.410;2023-04-25T12:30:07;6.47;;;2.10;;
10509;SDS011;5303;53.266;10.410;2023-04-25T12:32:33;5.07;;;2.10;;
10509;SDS011;5303;53.266;10.410;2023-04-25T12:34:58;6.70;;;2.17;;
10509;SDS011;5303;53.266;10.410;2023-04-25T12:37:24;6.63;;;2.23;;
10509;SDS011;5303;53.266;10.410;2023-04-25T12:39:49;6.87;;;1.70;;
10509;SDS011;5303;53.266;10.410;2023-04-25T12:42:15;6.37;;;1.90;;
10509;SDS011;5303;53.266;10.410;2023-04-25T12:44:40;5.67;;;1.77;;
10509;SDS011;5303;53.266;10.410;2023-04-25T12:47:06;4.87;;;1.77;;
10509;SDS011;5303;53.266;10.410;2023-04-25T12:49:31;5.07;;;1.90;;
10509;SDS011;5303;53.266;10.410;2023-04-25T12:51:57;5.23;;;1.90;;
10509;SDS011;5303;53.266;10.410;2023-04-25T12:54:23;8.57;;;2.30;;
10509;SDS011;5303;53.266;10.410;2023-04-25T12:56:48;7.47;;;2.03;;
10509;SDS011;5303;53.266;10.410;2023-04-25T12:59:15;7.87;;;2.23;;
10509;SDS011;5303;53.266;10.410;2023-04-25T13:01:40;6.95;;;2.50;;
10509;SDS011;5303;53.266;10.410;2023-04-25T13:04:05;6.33;;;1.80;;
10509;SDS011;5303;53.266;10.410;2023-04-25T13:06:31;7.53;;;2.30;;
10509;SDS011;5303;53.266;10.410;2023-04-25T13:08:56;5.05;;;1.80;;
10509;SDS011;5303;53.266;10.410;2023-04-25T13:11:21;8.00;;;1.93;;
10509;SDS011;5303;53.266;10.410;2023-04-25T13:13:51;5.33;;;1.97;;
10509;SDS011;5303;53.266;10.410;2023-04-25T13:16:16;6.23;;;1.70;;
10509;SDS011;5303;53.266;10.410;2023-04-25T13:18:41;7.33;;;2.13;;
10509;SDS011;5303;53.266;10.410;2023-04-25T13:21:07;5.97;;;2.23;;
10509;SDS011;5303;53.266;10.410;2023-04-25T13:23:34;6.80;;;2.10;;
10509;SDS011;5303;53.266;10.410;2023-04-25T13:26:00;4.53;;;2.00;;
10509;SDS011;5303;53.266;10.410;2023-04-25T13:28:26;5.73;;;2.13;;
10509;SDS011;5303;53.266;10.410;2023-04-25T13:30:52;6.83;;;2.03;;
10509;SDS011;5303;53.266;10.410;2023-04-25T13:33:18;4.80;;;1.50;;
10509;SDS011;5303;53.266;10.410;2023-04-25T13:35:45;2.97;;;1.50;;
10509;SDS011;5303;53.266;10.410;2023-04-25T13:38:12;2.60;;;1.47;;
10509;SDS011;5303;53.266;10.410;2023-04-25T13:40:38;3.83;;;1.57;;
10509;SDS011;5303;53.266;10.410;2023-04-25T13:43:03;4.13;;;1.53;;
10509;SDS011;5303;53.266;10.410;2023-04-25T13:45:29;3.23;;;1.37;;
10509;SDS011;5303;53.266;10.410;2023-04-25T13:47:54;4.27;;;2.00;;
10509;SDS011;5303;53.266;10.410;2023-04-25T13:50:20;4.97;;;1.97;;
10509;SDS011;5303;53.266;10.410;2023-04-25T13:52:45;6.77;;;1.70;;
10509;SDS011;5303;53.266;10.410;2023-04-25T13:55:10;9.07;;;1.80;;
10509;SDS011;5303;53.266;10.410;2023-04-25T13:57:36;5.50;;;1.83;;
10509;SDS011;5303;53.266;10.410;2023-04-25T14:00:02;5.67;;;1.97;;
10509;SDS011;5303;53.266;10.410;2023-04-25T14:02:33;3.23;;;1.77;;
10509;SDS011;5303;53.266;10.410;2023-04-25T14:04:59;5.50;;;1.60;;
10509;SDS011;5303;53.266;10.410;2023-04-25T14:07:24;7.70;;;2.60;;
10509;SDS011;5303;53.266;10.410;2023-04-25T14:09:51;7.80;;;2.27;;
10509;SDS011;5303;53.266;10.410;2023-04-25T14:12:16;6.50;;;1.80;;
10509;SDS011;5303;53.266;10.410;2023-04-25T14:14:41;4.93;;;1.90;;
10509;SDS011;5303;53.266;10.410;2023-04-25T14:17:07;3.53;;;1.70;;
10509;SDS011;5303;53.266;10.410;2023-04-25T14:19:33;4.27;;;1.90;;
10509;SDS011;5303;53.266;10.410;2023-04-25T14:21:58;5.93;;;1.80;;
10509;SDS011;5303;53.266;10.410;2023-04-25T14:24:24;6.83;;;2.07;;
10509;SDS011;5303;53.266;10.410;2023-04-25T14:26:50;5.00;;;2.57;;
10509;SDS011;5303;53.266;10.410;2023-04-25T14:29:15;8.17;;;2.83;;
10509;SDS011;5303;53.266;10.410;2023-04-25T14:31:40;5.83;;;2.20;;
10509;SDS011;5303;53.266;10.410;2023-04-25T14:34:06;8.23;;;2.27;;
10509;SDS011;5303;53.266;10.410;2023-04-25T14:36:32;6.40;;;2.40;;
10509;SDS011;5303;53.266;10.410;2023-04-25T14:38:58;4.90;;;2.00;;
10509;SDS011;5303;53.266;10.410;2023-04-25T14:41:23;9.07;;;2.20;;
10509;SDS011;5303;53.266;10.410;2023-04-25T14:43:49;7.53;;;2.63;;
10509;SDS011;5303;53.266;10.410;2023-04-25T14:46:15;7.57;;;2.47;;